Time;durP1;ratioP1;P1;durP2;ratioP2;P2;SDS_P1;SDS_P2;PMS_P1;PMS_P2;Temp;Humidity;BMP_temperature;BMP_pressure;BME280_temperature;BME280_humidity;BME280_pressure;Samples;Min_cycle;Max_cycle;Signal;HPM_P1;HPM_P2
2022/10/12 00:02:22;;;;;;;32.15;13.63;;;;;;;13.32;100.00;96876.81;5041532;28;20225;-70
2022/10/12 00:04:48;;;;;;;29.85;13.75;;;;;;;13.36;100.00;96878.09;5042401;28;20205;-70
2022/10/12 00:07:15;;;;;;;33.75;14.05;;;;;;;13.38;100.00;96881.38;5042543;28;20205;-72
2022/10/12 00:09:41;;;;;;;30.23;13.98;;;;;;;13.39;100.00;96879.41;5042559;28;20212;-69
2022/10/12 00:12:08;;;;;;;35.57;14.37;;;;;;;13.37;100.00;96880.56;5041704;28;20237;-70
2022/10/12 00:14:37;;;;;;;34.65;14.35;;;;;;;13.40;100.00;96881.03;5041781;28;20208;-70
2022/10/12 00:17:03;;;;;;;36.60;14.32;;;;;;;13.37;100.00;96877.13;5042121;28;20209;-70
2022/10/12 00:19:30;;;;;;;35.60;14.63;;;;;;;13.38;100.00;96883.03;5042155;28;20200;-72
2022/10/12 00:21:56;;;;;;;28.77;13.35;;;;;;;13.37;100.00;96883.22;5042187;28;20217;-73
2022/10/12 00:24:23;;;;;;;31.63;14.07;;;;;;;13.39;100.00;96891.81;5042085;28;20205;-70
2022/10/12 00:26:50;;;;;;;32.45;13.13;;;;;;;13.47;100.00;96884.63;5041947;28;20427;-70
2022/10/12 00:29:16;;;;;;;28.88;12.45;;;;;;;13.45;100.00;96881.34;5042508;28;20201;-70
2022/10/12 00:31:44;;;;;;;30.05;13.32;;;;;;;13.49;100.00;96890.56;5042105;28;20229;-72
2022/10/12 00:34:11;;;;;;;33.00;13.25;;;;;;;13.38;100.00;96882.22;5041282;28;20650;-73
2022/10/12 00:36:38;;;;;;;28.58;12.85;;;;;;;13.43;100.00;96885.97;5042159;28;20201;-75
2022/10/12 00:39:07;;;;;;;30.77;12.55;;;;;;;13.52;100.00;96878.78;5042607;28;20233;-72
2022/10/12 00:41:38;;;;;;;26.92;12.20;;;;;;;13.57;100.00;96887.84;5041830;28;20270;-70
2022/10/12 00:44:19;;;;;;;29.25;12.73;;;;;;;13.50;100.00;96878.97;5045599;28;20216;-69
2022/10/12 00:46:47;;;;;;;27.92;12.52;;;;;;;13.51;100.00;96883.25;5045537;28;20208;-70
2022/10/12 00:49:19;;;;;;;31.45;13.38;;;;;;;13.53;100.00;96885.72;5046170;28;20683;-71
2022/10/12 00:51:51;;;;;;;29.02;12.82;;;;;;;13.50;100.00;96886.91;5045872;28;20233;-69
2022/10/12 00:54:21;;;;;;;29.70;12.90;;;;;;;13.48;100.00;96888.09;5044944;28;20291;-71
2022/10/12 00:56:52;;;;;;;30.45;11.98;;;;;;;13.46;100.00;96885.59;5046005;28;20213;-71
2022/10/12 00:59:22;;;;;;;28.08;12.43;;;;;;;13.44;100.00;96884.97;5045637;28;20220;-70
2022/10/12 01:01:50;;;;;;;29.25;12.35;;;;;;;13.43;100.00;96885.97;5045385;28;20232;-71
2022/10/12 01:04:17;;;;;;;30.98;13.35;;;;;;;13.32;100.00;96879.47;5044700;28;20201;-69
2022/10/12 01:06:44;;;;;;;33.88;13.20;;;;;;;13.31;100.00;96881.28;5045634;28;20209;-70
2022/10/12 01:09:10;;;;;;;30.00;13.32;;;;;;;13.12;100.00;96883.59;5045232;28;20685;-69
2022/10/12 01:11:37;;;;;;;31.30;13.55;;;;;;;13.23;100.00;96877.88;5045350;28;20228;-73
2022/10/12 01:14:03;;;;;;;35.28;13.45;;;;;;;13.19;100.00;96887.19;5045036;28;20583;-70
2022/10/12 01:16:38;;;;;;;32.08;13.63;;;;;;;13.24;100.00;96879.50;5045278;28;20756;-69
2022/10/12 01:19:17;;;;;;;32.40;14.38;;;;;;;13.26;100.00;96883.63;5045332;28;20196;-70
2022/10/12 01:21:50;;;;;;;31.00;13.27;;;;;;;13.33;100.00;96881.09;5045381;28;20586;-70
2022/10/12 01:24:41;;;;;;;31.95;12.73;;;;;;;13.37;100.00;96880.56;5044649;28;20290;-72
2022/10/12 01:27:29;;;;;;;28.35;13.27;;;;;;;13.37;100.00;96885.06;5044863;28;20205;-72
2022/10/12 01:30:09;;;;;;;30.98;12.43;;;;;;;13.34;100.00;96890.69;5045397;28;20226;-70
2022/10/12 01:32:46;;;;;;;34.35;13.35;;;;;;;13.24;100.00;96880.34;5044162;28;20229;-70
2022/10/12 01:35:21;;;;;;;34.03;13.27;;;;;;;13.25;100.00;96884.66;5045291;28;20471;-70
2022/10/12 01:37:56;;;;;;;27.63;13.40;;;;;;;13.29;100.00;96879.81;5045184;28;20454;-70
2022/10/12 01:40:30;;;;;;;34.67;13.85;;;;;;;13.31;100.00;96886.56;5044591;28;20204;-71
2022/10/12 01:42:58;;;;;;;29.23;13.63;;;;;;;13.39;100.00;96883.88;5044549;28;20211;-70
2022/10/12 01:45:25;;;;;;;30.95;14.65;;;;;;;13.38;100.00;96886.69;5044617;28;20201;-70
2022/10/12 01:47:54;;;;;;;30.05;12.60;;;;;;;13.37;100.00;96885.06;5044567;28;20205;-71
2022/10/12 01:50:24;;;;;;;30.73;13.52;;;;;;;13.37;100.00;96887.69;5044294;28;20575;-70
2022/10/12 01:53:00;;;;;;;31.95;13.48;;;;;;;13.43;100.00;96893.09;5043722;28;20325;-70
2022/10/12 01:55:37;;;;;;;33.75;13.45;;;;;;;13.46;100.00;96882.97;5044357;28;20205;-70
2022/10/12 01:58:17;;;;;;;31.90;13.02;;;;;;;13.51;100.00;96883.25;5044953;28;20207;-70
2022/10/12 02:00:54;;;;;;;26.90;13.55;;;;;;;13.47;100.00;96879.31;5043916;28;20245;-70
2022/10/12 02:03:26;;;;;;;31.17;12.85;;;;;;;13.46;100.00;96885.59;5043941;28;20215;-70
2022/10/12 02:05:59;;;;;;;30.20;13.80;;;;;;;13.49;100.00;96879.97;5043994;28;20220;-70
2022/10/12 02:08:31;;;;;;;32.63;13.55;;;;;;;13.51;100.00;96877.94;5044517;28;20211;-73
2022/10/12 02:11:02;;;;;;;34.78;13.93;;;;;;;13.51;100.00;96877.94;5043847;28;20221;-73
2022/10/12 02:13:33;;;;;;;33.35;14.88;;;;;;;13.49;100.00;96876.47;5043629;28;20224;-73
2022/10/12 02:16:07;;;;;;;39.50;16.10;;;;;;;13.39;100.00;96874.09;5044204;28;20669;-70
2022/10/12 02:18:38;;;;;;;40.13;16.33;;;;;;;13.26;100.00;96866.94;5044238;28;20676;-69
2022/10/12 02:21:07;;;;;;;46.65;17.33;;;;;;;13.21;100.00;96864.00;5044236;28;20228;-71
2022/10/12 02:23:34;;;;;;;50.55;17.42;;;;;;;13.19;100.00;96866.81;5043302;28;20240;-70
2022/10/12 02:26:02;;;;;;;48.75;16.80;;;;;;;13.24;100.00;96858.34;5044425;28;20201;-70
2022/10/12 02:28:32;;;;;;;50.10;18.13;;;;;;;13.16;100.00;96861.06;5043961;28;20201;-70
2022/10/12 02:31:07;;;;;;;45.33;18.23;;;;;;;13.18;100.00;96859.88;5043687;28;20229;-71
2022/10/12 02:33:40;;;;;;;52.33;17.70;;;;;;;13.26;100.00;96856.34;5043762;28;20201;-69
2022/10/12 02:36:12;;;;;;;51.22;17.40;;;;;;;13.26;100.00;96856.34;5043734;28;20201;-70
2022/10/12 02:38:43;;;;;;;49.63;17.38;;;;;;;13.27;100.00;96858.00;5043835;28;20205;-69
2022/10/12 02:41:13;;;;;;;45.75;17.70;;;;;;;13.31;100.00;96854.81;5043656;28;20224;-70
2022/10/12 02:43:44;;;;;;;43.78;17.73;;;;;;;13.34;100.00;96843.03;5042867;28;20681;-69
2022/10/12 02:46:13;;;;;;;39.00;17.50;;;;;;;13.19;100.00;96845.66;5043579;28;20684;-70
2022/10/12 02:48:41;;;;;;;45.25;17.02;;;;;;;13.14;100.00;96852.50;5043746;28;20209;-70
2022/10/12 02:51:10;;;;;;;39.85;17.17;;;;;;;13.10;100.00;96835.31;5043408;28;20396;-70
2022/10/12 02:53:37;;;;;;;55.60;18.27;;;;;;;13.12;100.00;96838.59;5040720;28;20228;-72
2022/10/12 02:56:06;;;;;;;48.53;18.17;;;;;;;13.15;100.00;96851.47;5043477;28;20197;-70
2022/10/12 02:58:33;;;;;;;56.28;19.02;;;;;;;13.03;100.00;96852.91;5043615;28;20288;-70
2022/10/12 03:00:59;;;;;;;45.22;18.77;;;;;;;13.12;100.00;96843.91;5043484;28;20226;-71
2022/10/12 03:03:27;;;;;;;59.67;18.92;;;;;;;13.15;100.00;96840.88;5042717;28;20854;-73
2022/10/12 03:05:54;;;;;;;49.40;18.58;;;;;;;13.13;100.00;96849.00;5043129;28;20666;-74
2022/10/12 03:08:20;;;;;;;53.83;18.55;;;;;;;13.19;100.00;96844.84;5043043;28;20208;-70
2022/10/12 03:10:47;;;;;;;45.33;18.52;;;;;;;13.11;100.00;96852.81;5042768;28;20243;-69
2022/10/12 03:13:13;;;;;;;52.20;19.77;;;;;;;13.15;100.00;96844.38;5042854;28;20229;-70
2022/10/12 03:15:40;;;;;;;50.38;18.73;;;;;;;13.20;100.00;96847.31;5043259;28;20415;-69
2022/10/12 03:18:06;;;;;;;56.95;18.55;;;;;;;13.18;100.00;96851.13;5042961;28;20205;-69
2022/10/12 03:20:34;;;;;;;47.05;19.42;;;;;;;13.28;100.00;96854.38;5043107;28;20228;-69
2022/10/12 03:23:01;;;;;;;47.08;18.23;;;;;;;13.19;100.00;96850.13;5042321;28;20197;-70
2022/10/12 03:25:27;;;;;;;51.58;18.20;;;;;;;13.14;100.00;96857.78;5043027;28;20211;-73
2022/10/12 03:27:54;;;;;;;48.75;18.52;;;;;;;13.11;100.00;96853.66;5043453;28;20206;-69
2022/10/12 03:30:20;;;;;;;52.20;19.67;;;;;;;13.14;100.00;96857.78;5042647;28;20702;-70
2022/10/12 03:32:47;;;;;;;51.88;20.02;;;;;;;13.11;100.00;96858.13;5042278;28;20232;-69
2022/10/12 03:35:14;;;;;;;55.58;19.58;;;;;;;13.11;100.00;96861.59;5042928;28;20232;-70
2022/10/12 03:37:42;;;;;;;48.47;18.90;;;;;;;13.23;100.00;96859.38;5042521;28;20197;-70
2022/10/12 03:40:10;;;;;;;56.83;18.98;;;;;;;13.18;100.00;96856.41;5042779;28;20221;-73
2022/10/12 03:42:36;;;;;;;49.03;18.27;;;;;;;13.11;100.00;96848.38;5042492;28;20220;-70
2022/10/12 03:45:03;;;;;;;50.40;18.52;;;;;;;13.06;100.00;96855.19;5042410;28;20212;-69
2022/10/12 03:47:29;;;;;;;48.22;19.42;;;;;;;13.06;100.00;96860.47;5042878;28;20201;-69
2022/10/12 03:49:56;;;;;;;54.10;18.67;;;;;;;12.96;100.00;96852.78;5042599;28;20220;-69
2022/10/12 03:52:22;;;;;;;55.10;18.27;;;;;;;12.89;100.00;96848.38;5041443;28;20239;-72
2022/10/12 03:54:50;;;;;;;52.45;18.95;;;;;;;12.97;100.00;96858.88;5042889;28;20581;-70
2022/10/12 03:57:16;;;;;;;53.38;18.67;;;;;;;12.85;100.00;96858.47;5042625;28;20208;-69
2022/10/12 03:59:43;;;;;;;57.75;19.05;;;;;;;12.85;100.00;96857.63;5042647;28;20615;-72
2022/10/12 04:02:09;;;;;;;58.70;20.80;;;;;;;12.90;100.00;96852.66;5041856;28;20224;-74
2022/10/12 04:04:36;;;;;;;51.17;18.77;;;;;;;12.95;100.00;96852.97;5042010;28;20589;-72
2022/10/12 04:07:02;;;;;;;54.38;18.60;;;;;;;12.92;100.00;96858.63;5042144;28;20209;-73
2022/10/12 04:09:29;;;;;;;53.97;19.10;;;;;;;12.95;100.00;96852.97;5042295;28;20696;-72
2022/10/12 04:11:57;;;;;;;54.72;18.58;;;;;;;12.98;100.00;96855.25;5042208;28;20328;-71
2022/10/12 04:14:23;;;;;;;59.20;20.30;;;;;;;12.90;100.00;96857.97;5041535;28;20207;-71
2022/10/12 04:16:50;;;;;;;50.17;19.60;;;;;;;12.77;100.00;96860.34;5041929;28;20215;-72
2022/10/12 04:19:16;;;;;;;60.73;20.00;;;;;;;12.73;100.00;96856.41;5042172;28;20212;-72
2022/10/12 04:21:43;;;;;;;61.67;19.80;;;;;;;12.74;100.00;96865.13;5041927;28;20221;-71
2022/10/12 04:24:09;;;;;;;53.25;20.75;;;;;;;12.77;100.00;96862.97;5041580;28;20209;-72
2022/10/12 04:26:36;;;;;;;58.63;20.40;;;;;;;12.72;100.00;96872.44;5042038;28;20209;-72
2022/10/12 04:29:04;;;;;;;60.83;20.00;;;;;;;12.75;100.00;96870.25;5042258;28;20452;-74
2022/10/12 04:31:31;;;;;;;60.27;21.37;;;;;;;12.77;100.00;96876.19;5042050;28;20227;-72
2022/10/12 04:33:57;;;;;;;54.80;19.50;;;;;;;12.76;100.00;96877.19;5041460;28;20581;-71
2022/10/12 04:36:24;;;;;;;56.60;21.10;;;;;;;12.77;100.00;96873.56;5042180;28;20790;-72
2022/10/12 04:38:50;;;;;;;53.73;19.73;;;;;;;12.87;100.00;96863.63;5042082;28;20677;-73
2022/10/12 04:41:17;;;;;;;65.53;21.00;;;;;;;12.79;100.00;96871.53;5041930;28;20224;-72
2022/10/12 04:43:43;;;;;;;66.77;21.83;;;;;;;12.74;100.00;96876.56;5041176;28;20210;-73
2022/10/12 04:46:11;;;;;;;60.63;20.60;;;;;;;12.84;100.00;96877.13;5042519;28;20198;-72
2022/10/12 04:48:38;;;;;;;67.07;21.77;;;;;;;12.77;100.00;96877.00;5041950;28;20209;-71
2022/10/12 04:51:05;;;;;;;60.42;21.02;;;;;;;12.81;100.00;96870.38;5042000;28;20225;-73
2022/10/12 04:53:32;;;;;;;61.63;22.00;;;;;;;12.80;100.00;96878.47;5041165;28;20639;-72
2022/10/12 04:56:02;;;;;;;56.80;20.98;;;;;;;12.92;100.00;96879.78;5041954;28;20216;-71
2022/10/12 04:58:29;;;;;;;65.32;21.45;;;;;;;12.79;100.00;96882.97;5041971;28;20205;-71
2022/10/12 05:00:55;;;;;;;55.45;20.98;;;;;;;12.76;100.00;96879.84;5041861;28;20233;-73
2022/10/12 05:03:23;;;;;;;60.50;21.38;;;;;;;12.90;100.00;96879.13;5041407;28;20205;-72
2022/10/12 05:05:50;;;;;;;61.63;19.83;;;;;;;12.82;100.00;96879.97;5041894;28;20220;-71
2022/10/12 05:08:16;;;;;;;61.10;20.85;;;;;;;12.94;100.00;96888.34;5041737;28;20205;-71
2022/10/12 05:10:45;;;;;;;60.70;20.02;;;;;;;13.00;100.00;96883.16;5041810;28;20240;-74
2022/10/12 05:13:11;;;;;;;51.70;20.30;;;;;;;12.92;100.00;96885.06;5041058;28;20221;-72
2022/10/12 05:15:38;;;;;;;55.33;19.45;;;;;;;12.86;100.00;96881.28;5041533;28;20553;-75
2022/10/12 05:18:04;;;;;;;53.15;19.65;;;;;;;13.00;100.00;96879.72;5041801;28;20613;-71
2022/10/12 05:20:32;;;;;;;56.85;20.98;;;;;;;13.01;100.00;96876.06;5041911;28;20202;-71
2022/10/12 05:22:59;;;;;;;55.03;20.15;;;;;;;12.92;100.00;96887.72;5040779;28;20215;-72
2022/10/12 05:25:28;;;;;;;59.83;20.50;;;;;;;12.96;100.00;96878.44;5041359;28;20205;-73
2022/10/12 05:27:54;;;;;;;63.72;21.23;;;;;;;12.90;100.00;96887.06;5041561;28;20208;-73
2022/10/12 05:30:21;;;;;;;66.50;20.42;;;;;;;13.01;100.00;96878.72;5044438;28;20209;-71
2022/10/12 05:32:48;;;;;;;54.33;19.97;;;;;;;13.00;100.00;96882.38;5044542;28;20225;-71
2022/10/12 05:35:14;;;;;;;52.80;19.40;;;;;;;12.94;100.00;96883.88;5045114;28;20208;-74
2022/10/12 05:37:42;;;;;;;58.67;20.98;;;;;;;13.07;100.00;96878.00;5045343;28;20205;-71
2022/10/12 05:40:10;;;;;;;57.50;19.80;;;;;;;13.07;100.00;96888.59;5044942;28;20205;-72
2022/10/12 05:42:36;;;;;;;51.90;19.92;;;;;;;13.08;100.00;96880.47;5043854;28;20225;-74
2022/10/12 05:45:04;;;;;;;54.28;19.17;;;;;;;13.00;100.00;96883.16;5045253;28;20211;-73
2022/10/12 05:47:30;;;;;;;50.42;18.75;;;;;;;13.06;100.00;96886.94;5045054;28;20201;-72
2022/10/12 05:49:57;;;;;;;48.50;18.20;;;;;;;13.13;100.00;96890.53;5044586;28;20213;-72
2022/10/12 05:52:23;;;;;;;57.03;20.95;;;;;;;13.14;100.00;96884.25;5044115;28;20225;-72
2022/10/12 05:54:51;;;;;;;56.28;18.63;;;;;;;13.27;100.00;96895.06;5044828;28;20226;-73
2022/10/12 05:57:18;;;;;;;54.45;19.02;;;;;;;13.24;100.00;96898.03;5044641;28;20950;-72
2022/10/12 05:59:44;;;;;;;51.63;18.85;;;;;;;13.20;100.00;96899.41;5045169;28;20303;-73
2022/10/12 06:02:13;;;;;;;54.40;19.30;;;;;;;13.31;100.00;96904.28;5044493;28;20225;-72
2022/10/12 06:04:40;;;;;;;53.00;19.52;;;;;;;13.23;100.00;96904.34;5044271;28;20197;-72
2022/10/12 06:07:06;;;;;;;53.03;20.13;;;;;;;13.31;100.00;96912.22;5044494;28;20217;-72
2022/10/12 06:09:33;;;;;;;55.50;19.42;;;;;;;13.29;100.00;96903.63;5044234;28;20682;-71
2022/10/12 06:12:01;;;;;;;49.75;18.85;;;;;;;13.20;100.00;96897.59;5043908;28;20236;-72
2022/10/12 06:14:27;;;;;;;56.58;18.55;;;;;;;13.25;100.00;96900.53;5043304;28;20205;-73
2022/10/12 06:16:53;;;;;;;51.53;18.33;;;;;;;13.24;100.00;96903.34;5044529;28;20209;-72
2022/10/12 06:19:20;;;;;;;58.15;21.00;;;;;;;13.30;100.00;96900.81;5044130;28;20728;-73
2022/10/12 06:21:46;;;;;;;55.85;19.83;;;;;;;13.28;100.00;96899.34;5044380;28;20701;-75
2022/10/12 06:24:13;;;;;;;47.83;19.25;;;;;;;13.32;100.00;96903.28;5043454;28;20581;-72
2022/10/12 06:26:39;;;;;;;45.58;17.88;;;;;;;13.38;100.00;96908.69;5043965;28;20467;-72
2022/10/12 06:29:07;;;;;;;49.30;19.70;;;;;;;13.47;100.00;96911.09;5044346;28;20216;-72
2022/10/12 06:31:34;;;;;;;47.80;18.67;;;;;;;13.35;100.00;96908.22;5043999;28;20225;-73
2022/10/12 06:34:00;;;;;;;48.40;18.60;;;;;;;13.44;100.00;96907.97;5043339;28;20221;-73
2022/10/12 06:36:27;;;;;;;45.55;18.20;;;;;;;13.38;100.00;96913.16;5044087;28;20205;-72
2022/10/12 06:38:54;;;;;;;47.97;19.30;;;;;;;13.35;100.00;96913.50;5043691;28;20234;-71
2022/10/12 06:41:20;;;;;;;50.55;18.23;;;;;;;13.46;100.00;96912.09;5043314;28;20243;-71
2022/10/12 06:43:46;;;;;;;50.78;19.00;;;;;;;13.58;100.00;96918.63;5043731;28;20216;-72
2022/10/12 06:46:14;;;;;;;47.42;19.10;;;;;;;13.72;100.00;96912.53;5043831;28;20209;-72
2022/10/12 06:48:41;;;;;;;47.35;18.67;;;;;;;13.64;100.00;96914.41;5043482;28;20635;-72
2022/10/12 06:51:07;;;;;;;51.58;18.38;;;;;;;13.60;100.00;96918.44;5043698;28;20221;-73
2022/10/12 06:53:34;;;;;;;45.55;17.08;;;;;;;13.66;100.00;96917.72;5042316;28;20312;-72
2022/10/12 06:56:06;;;;;;;47.15;18.00;;;;;;;13.79;100.00;96916.09;5043622;28;20200;-73
2022/10/12 06:58:32;;;;;;;44.30;17.05;;;;;;;13.65;100.00;96916.88;5043593;28;20193;-74
2022/10/12 07:01:01;;;;;;;45.65;18.05;;;;;;;13.70;100.00;96913.72;5043481;28;20408;-75
2022/10/12 07:03:29;;;;;;;47.40;18.17;;;;;;;13.64;100.00;96909.94;5042760;28;20202;-71
2022/10/12 07:06:04;;;;;;;47.13;18.13;;;;;;;13.45;100.00;96923.69;5043235;28;20209;-71
2022/10/12 07:08:30;;;;;;;46.17;18.92;;;;;;;13.49;100.00;96917.03;5043504;28;20219;-71
2022/10/12 07:11:00;;;;;;;41.63;17.27;;;;;;;13.59;100.00;96909.69;5043553;28;20221;-71
2022/10/12 07:13:26;;;;;;;48.83;18.02;;;;;;;13.67;100.00;96919.34;5042689;28;20225;-71
2022/10/12 07:15:53;;;;;;;51.88;17.95;;;;;;;13.71;100.00;96916.19;5043318;28;20205;-71
2022/10/12 07:18:19;;;;;;;47.15;18.45;;;;;;;13.77;100.00;96906.69;5043046;28;20213;-71
2022/10/12 07:20:47;;;;;;;45.90;18.33;;;;;;;13.94;100.00;96922.25;5043167;28;20225;-71
2022/10/12 07:23:13;;;;;;;39.47;17.95;;;;;;;13.92;100.00;96918.13;5042098;28;20198;-71
2022/10/12 07:25:40;;;;;;;49.05;18.50;;;;;;;13.97;100.00;96913.94;5043147;28;20201;-71
2022/10/12 07:28:06;;;;;;;43.58;17.02;;;;;;;14.06;100.00;96920.78;5043102;28;20681;-71
2022/10/12 07:30:36;;;;;;;48.95;18.77;;;;;;;14.16;100.00;96921.38;5042888;28;20578;-71
2022/10/12 07:33:02;;;;;;;40.10;16.95;;;;;;;14.13;100.00;96921.75;5041936;28;20507;-71
2022/10/12 07:35:28;;;;;;;45.95;17.95;;;;;;;14.26;100.00;96916.63;5043122;28;20212;-72
2022/10/12 07:37:56;;;;;;;38.80;16.67;;;;;;;14.38;100.00;96917.81;5042750;28;20217;-69
2022/10/12 07:40:25;;;;;;;47.45;18.88;;;;;;;14.38;100.00;96925.75;5042679;28;20205;-69
2022/10/12 07:42:51;;;;;;;41.55;17.25;;;;;;;14.43;100.00;96931.34;5041888;28;20283;-69
2022/10/12 07:45:18;;;;;;;44.80;17.42;;;;;;;14.29;100.00;96925.03;5042880;28;20661;-72
2022/10/12 07:47:45;;;;;;;47.08;17.75;;;;;;;14.26;100.00;96933.34;5042596;28;20209;-70
2022/10/12 07:50:12;;;;;;;43.45;16.80;;;;;;;14.21;100.00;96934.91;5042411;28;20271;-70
2022/10/12 07:52:38;;;;;;;52.05;20.40;;;;;;;14.30;100.00;96926.66;5041031;28;20201;-69
2022/10/12 07:55:07;;;;;;;50.75;20.45;;;;;;;14.44;100.00;96930.34;5042778;28;20552;-70
2022/10/12 07:57:34;;;;;;;48.95;17.83;;;;;;;14.37;100.00;96938.22;5042850;28;20205;-69
2022/10/12 08:00:00;;;;;;;46.45;17.67;;;;;;;14.35;100.00;96932.25;5042774;28;20205;-70
2022/10/12 08:02:27;;;;;;;46.92;18.27;;;;;;;14.46;100.00;96937.09;5041607;28;20231;-70
2022/10/12 08:04:53;;;;;;;40.50;17.23;;;;;;;14.55;100.00;96935.16;5042416;28;20213;-70
2022/10/12 08:07:20;;;;;;;43.92;18.15;;;;;;;14.58;100.00;96926.84;5042585;28;20197;-70
2022/10/12 08:09:48;;;;;;;45.58;18.40;;;;;;;14.65;100.00;96934.72;5042706;28;20232;-72
2022/10/12 08:12:16;;;;;;;41.83;18.10;;;;;;;14.66;100.00;96932.88;5041714;28;20225;-72
2022/10/12 08:14:42;;;;;;;43.05;18.17;;;;;;;14.61;100.00;96937.91;5042112;28;20236;-72
2022/10/12 08:17:09;;;;;;;48.33;18.33;;;;;;;14.70;100.00;96934.13;5042278;28;20216;-71
2022/10/12 08:19:36;;;;;;;41.92;17.20;;;;;;;14.58;100.00;96932.16;5042014;28;20692;-72
2022/10/12 08:22:03;;;;;;;42.08;18.98;;;;;;;14.71;100.00;96927.84;5042331;28;20248;-72
2022/10/12 08:24:29;;;;;;;45.58;18.73;;;;;;;14.46;100.00;96930.97;5041713;28;20205;-72
2022/10/12 08:26:55;;;;;;;44.35;19.05;;;;;;;14.64;100.00;96929.59;5042259;28;20201;-71
2022/10/12 08:29:23;;;;;;;41.38;18.98;;;;;;;14.93;100.00;96933.00;5041802;28;20204;-71
2022/10/12 08:31:50;;;;;;;54.53;20.25;;;;;;;15.08;100.00;96935.63;5042416;28;20236;-72
2022/10/12 08:34:17;;;;;;;41.72;18.30;;;;;;;15.13;100.00;96938.53;5041742;28;20235;-71
2022/10/12 08:36:43;;;;;;;43.70;18.67;;;;;;;15.15;100.00;96942.66;5042167;28;20209;-72
2022/10/12 08:39:10;;;;;;;48.47;18.85;;;;;;;14.99;100.00;96932.25;5042337;28;20209;-72
2022/10/12 08:41:59;;;;;;;49.50;18.33;;;;;;;15.19;100.00;96927.97;5041808;28;20225;-70
2022/10/12 08:44:52;;;;;;;44.92;18.25;;;;;;;15.16;100.00;96932.84;5041358;28;20201;-69
2022/10/12 08:47:24;;;;;;;40.05;17.83;;;;;;;15.19;100.00;96927.97;5042258;28;20205;-70
2022/10/12 08:49:51;;;;;;;44.95;17.90;;;;;;;15.23;100.00;96925.81;5041957;28;20217;-70
2022/10/12 08:52:28;;;;;;;46.97;18.25;;;;;;;15.26;100.00;96928.88;5041860;28;20235;-70
2022/10/12 08:55:00;;;;;;;41.72;18.52;;;;;;;15.27;100.00;96927.88;5041947;28;20224;-70
2022/10/12 08:57:27;;;;;;;41.70;18.48;;;;;;;15.33;100.00;96921.84;5042462;28;20209;-69
2022/10/12 08:59:55;;;;;;;46.30;18.98;;;;;;;15.43;100.00;96930.31;5041861;28;20208;-70
2022/10/12 09:02:45;;;;;;;46.13;17.77;;;;;;;15.48;100.00;96928.72;5041269;28;20229;-70
2022/10/12 09:05:16;;;;;;;41.13;17.02;;;;;;;15.37;100.00;96925.75;5045757;28;20204;-70
2022/10/12 09:07:50;;;;;;;38.05;16.67;;;;;;;15.34;100.00;96931.44;5045472;28;20205;-70
2022/10/12 09:10:31;;;;;;;37.20;16.52;;;;;;;15.28;100.00;96933.00;5046024;28;20216;-72
2022/10/12 09:13:08;;;;;;;38.35;16.88;;;;;;;15.10;100.00;96945.03;5044998;28;20233;-72
2022/10/12 09:15:40;;;;;;;44.55;17.65;;;;;;;15.22;100.00;96945.41;5045840;28;20201;-72
2022/10/12 09:18:16;;;;;;;41.97;17.40;;;;;;;15.26;100.00;96939.50;5045733;28;20216;-72
2022/10/12 09:20:47;;;;;;;44.67;16.58;;;;;;;15.39;100.00;96937.03;5045716;28;20685;-72
2022/10/12 09:23:23;;;;;;;45.50;16.98;;;;;;;15.48;100.00;96938.53;5045001;28;20623;-72
2022/10/12 09:25:50;;;;;;;41.92;17.40;;;;;;;15.17;100.00;96951.22;5044960;28;20246;-72
2022/10/12 09:28:21;;;;;;;48.92;17.80;;;;;;;15.18;100.00;96941.44;5045255;28;20205;-72
2022/10/12 09:31:02;;;;;;;44.80;17.90;;;;;;;15.08;100.00;96949.69;5045228;28;20225;-71
2022/10/12 09:33:38;;;;;;;45.28;18.17;;;;;;;15.08;100.00;96954.19;5044456;28;20229;-72
2022/10/12 09:36:05;;;;;;;39.53;17.27;;;;;;;15.11;100.00;96941.38;5045114;28;20665;-72
2022/10/12 09:38:31;;;;;;;50.85;17.88;;;;;;;15.06;100.00;96946.44;5045299;28;20197;-72
2022/10/12 09:40:58;;;;;;;53.85;18.48;;;;;;;15.09;100.00;96948.69;5045043;28;20254;-72
2022/10/12 09:43:24;;;;;;;49.55;19.15;;;;;;;15.15;100.00;96947.13;5044209;28;20208;-72
2022/10/12 09:45:53;;;;;;;46.17;19.02;;;;;;;15.34;100.00;96947.38;5045256;28;20232;-72
2022/10/12 09:48:21;;;;;;;47.03;18.52;;;;;;;15.24;100.00;96941.56;5044862;28;20698;-71
2022/10/12 09:50:54;;;;;;;48.50;18.63;;;;;;;15.34;100.00;96944.72;5044525;28;20225;-72
2022/10/12 09:53:31;;;;;;;40.38;15.15;;;;;;;15.50;100.00;96934.69;5044587;28;20205;-72
2022/10/12 09:56:04;;;;;;;36.97;14.63;;;;;;;15.56;100.00;96935.75;5044795;28;20209;-72
2022/10/12 09:58:37;;;;;;;39.70;14.77;;;;;;;15.53;100.00;96930.78;5044786;28;20193;-71
2022/10/12 10:01:20;;;;;;;36.03;14.68;;;;;;;15.77;100.00;96922.44;5044583;28;20729;-72
2022/10/12 10:03:50;;;;;;;39.80;15.45;;;;;;;15.75;100.00;96924.47;5043988;28;20200;-72
2022/10/12 10:06:23;;;;;;;37.80;14.38;;;;;;;15.69;100.00;96927.88;5044639;28;20236;-71
2022/10/12 10:08:50;;;;;;;43.22;14.18;;;;;;;15.65;100.00;96927.44;5044785;28;20728;-72
2022/10/12 10:11:21;;;;;;;37.80;14.32;;;;;;;15.73;100.00;96929.13;5044024;28;20231;-72
2022/10/12 10:13:52;;;;;;;38.38;14.38;;;;;;;15.55;100.00;96924.28;5043557;28;20225;-72
2022/10/12 10:16:23;;;;;;;32.65;12.30;;;;;;;15.80;100.00;96925.53;5044042;28;20197;-71
2022/10/12 10:18:56;;;;;;;31.08;13.05;;;;;;;15.59;100.00;96922.06;5044549;28;20202;-72
2022/10/12 10:21:28;;;;;;;30.08;11.90;;;;;;;15.93;100.00;96915.81;5044657;28;20498;-72
2022/10/12 10:23:57;;;;;;;29.35;12.35;;;;;;;16.10;100.00;96925.16;5043430;28;20287;-72
2022/10/12 10:26:25;;;;;;;26.83;10.55;;;;;;;16.10;100.00;96917.19;5043966;28;20681;-71
2022/10/12 10:28:56;;;;;;;31.38;10.43;;;;;;;16.14;100.00;96915.75;5044301;28;20205;-72
2022/10/12 10:31:26;;;;;;;28.35;10.90;;;;;;;16.32;100.00;96916.13;5043898;28;20233;-72
2022/10/12 10:34:10;;;;;;;30.52;11.82;;;;;;;16.45;100.00;96924.16;5042915;28;20232;-72
2022/10/12 10:36:40;;;;;;;27.50;11.02;;;;;;;16.22;100.00;96918.25;5042798;28;20722;-72
2022/10/12 10:39:16;;;;;;;27.88;10.55;;;;;;;16.45;100.00;96918.84;5044279;28;20680;-72
2022/10/12 10:41:43;;;;;;;27.98;11.15;;;;;;;16.19;100.00;96926.66;5043946;28;20225;-71
2022/10/12 10:44:24;;;;;;;33.03;10.35;;;;;;;16.36;100.00;96920.03;5042935;28;20212;-72
2022/10/12 10:46:53;;;;;;;30.45;11.60;;;;;;;16.40;100.00;96926.59;5043637;28;20205;-72
2022/10/12 10:49:28;;;;;;;24.98;10.50;;;;;;;16.68;100.00;96928.16;5043663;28;20220;-71
2022/10/12 10:51:58;;;;;;;26.73;10.88;;;;;;;16.82;100.00;96926.41;5043904;28;20592;-71
2022/10/12 10:54:28;;;;;;;28.55;10.85;;;;;;;16.84;100.00;96935.00;5043087;28;20229;-72
2022/10/12 10:56:59;;;;;;;25.90;10.90;;;;;;;16.98;100.00;96928.69;5044008;28;20212;-72
2022/10/12 10:59:35;;;;;;;26.10;10.00;;;;;;;16.94;100.00;96927.47;5043649;28;20251;-72
2022/10/12 11:02:15;;;;;;;27.13;11.45;;;;;;;16.84;98.47;96927.00;5043542;28;20228;-71
2022/10/12 11:04:46;;;;;;;30.05;10.82;;;;;;;16.74;100.00;96924.72;5043166;28;20208;-72
2022/10/12 11:07:21;;;;;;;24.65;10.43;;;;;;;16.89;100.00;96920.09;5043624;28;20213;-72
2022/10/12 11:09:51;;;;;;;26.17;10.50;;;;;;;16.63;100.00;96911.97;5043145;28;20204;-72
2022/10/12 11:12:25;;;;;;;25.98;10.13;;;;;;;16.83;100.00;96915.53;5042791;28;20225;-72
2022/10/12 11:14:55;;;;;;;24.80;9.63;;;;;;;16.78;100.00;96911.84;5043569;28;20229;-72
2022/10/12 11:17:29;;;;;;;25.45;10.75;;;;;;;16.54;100.00;96913.16;5043286;28;20684;-72
2022/10/12 11:20:01;;;;;;;23.02;9.95;;;;;;;16.65;99.56;96909.13;5043513;28;20209;-72